Time;durP1;ratioP1;P1;durP2;ratioP2;P2;SDS_P1;SDS_P2;PMS_P1;PMS_P2;Temp;Humidity;BMP_temperature;BMP_pressure;BME280_temperature;BME280_humidity;BME280_pressure;Samples;Min_cycle;Max_cycle;Signal;HPM_P1;HPM_P2
2023/01/23 00:02:09;;;;;;;13.23;9.75;;;;;;;;;;5094349;28;20435;-89
2023/01/23 00:04:37;;;;;;;11.93;9.68;;;;;;;;;;5094864;28;20048;-89
2023/01/23 00:07:04;;;;;;;13.73;9.00;;;;;;;;;;5094323;28;20059;-88
2023/01/23 00:09:31;;;;;;;13.63;9.73;;;;;;;;;;5095339;28;20047;-88
2023/01/23 00:11:59;;;;;;;13.45;9.68;;;;;;;;;;5094478;28;20051;-88
2023/01/23 00:14:26;;;;;;;12.20;9.40;;;;;;;;;;5094459;28;20047;-87
2023/01/23 00:16:53;;;;;;;12.45;9.70;;;;;;;;;;5095342;28;20052;-88
2023/01/23 00:19:20;;;;;;;11.68;9.25;;;;;;;;;;5094529;28;20044;-88
2023/01/23 00:21:47;;;;;;;12.50;9.60;;;;;;;;;;5094371;28;20048;-88
2023/01/23 00:24:15;;;;;;;11.48;9.57;;;;;;;;;;5095723;28;20052;-89
2023/01/23 00:26:42;;;;;;;12.52;9.13;;;;;;;;;;5094572;28;20070;-88
2023/01/23 00:29:09;;;;;;;14.23;10.52;;;;;;;;;;5095355;28;20044;-88
2023/01/23 00:31:38;;;;;;;14.05;10.13;;;;;;;;;;5094594;28;20044;-87
2023/01/23 00:34:07;;;;;;;12.70;10.00;;;;;;;;;;5094021;28;20083;-89
2023/01/23 00:36:35;;;;;;;13.30;9.20;;;;;;;;;;5095073;28;20051;-89
2023/01/23 00:39:05;;;;;;;11.73;9.15;;;;;;;;;;5095071;28;20067;-88
2023/01/23 00:41:33;;;;;;;13.07;9.70;;;;;;;;;;5093964;28;20140;-87
2023/01/23 00:44:00;;;;;;;15.82;10.93;;;;;;;;;;5093642;28;20180;-89
2023/01/23 00:46:27;;;;;;;13.63;9.95;;;;;;;;;;5094946;28;20058;-88
2023/01/23 00:48:55;;;;;;;14.25;9.88;;;;;;;;;;5093669;28;20051;-88
2023/01/23 00:51:22;;;;;;;13.18;10.15;;;;;;;;;;5094639;28;20052;-88
2023/01/23 00:53:49;;;;;;;13.38;9.80;;;;;;;;;;5093916;28;20048;-89
2023/01/23 00:56:16;;;;;;;13.10;10.18;;;;;;;;;;5093776;28;20052;-88
2023/01/23 00:58:44;;;;;;;13.35;10.35;;;;;;;;;;5094625;28;20054;-88
2023/01/23 01:01:12;;;;;;;12.55;9.77;;;;;;;;;;5103207;28;20056;-89
2023/01/23 01:03:39;;;;;;;12.63;9.75;;;;;;;;;;5094607;28;20135;-88
2023/01/23 01:06:07;;;;;;;14.93;9.93;;;;;;;;;;5093651;28;20058;-88
2023/01/23 01:08:34;;;;;;;16.10;10.05;;;;;;;;;;5093890;28;20090;-88
2023/01/23 01:11:01;;;;;;;14.75;10.98;;;;;;;;;;5093257;28;20048;-89
2023/01/23 01:13:28;;;;;;;16.40;11.18;;;;;;;;;;5094478;28;20485;-88
2023/01/23 01:15:56;;;;;;;18.48;10.88;;;;;;;;;;5092948;28;20055;-88
2023/01/23 01:18:23;;;;;;;14.43;10.45;;;;;;;;;;5092922;28;20054;-88
2023/01/23 01:20:50;;;;;;;17.33;12.43;;;;;;;;;;5094091;28;20048;-88
2023/01/23 01:23:17;;;;;;;15.18;10.45;;;;;;;;;;5093105;28;20048;-88
2023/01/23 01:25:45;;;;;;;14.80;10.55;;;;;;;;;;5093962;28;20453;-88
2023/01/23 01:28:13;;;;;;;15.00;10.63;;;;;;;;;;5093940;28;20105;-88
2023/01/23 01:30:40;;;;;;;16.15;10.70;;;;;;;;;;5093975;28;20051;-88
2023/01/23 01:33:07;;;;;;;16.85;11.52;;;;;;;;;;5092933;28;20055;-88
2023/01/23 01:35:35;;;;;;;16.65;11.10;;;;;;;;;;5093466;28;20467;-88
2023/01/23 01:38:02;;;;;;;14.48;10.38;;;;;;;;;;5101486;28;20107;-87
2023/01/23 01:40:32;;;;;;;15.07;10.50;;;;;;;;;;5093173;28;20044;-88
2023/01/23 01:43:01;;;;;;;15.13;10.68;;;;;;;;;;5093689;28;20483;-88
2023/01/23 01:45:46;;;;;;;18.50;11.43;;;;;;;;;;5093828;28;20488;-88
2023/01/23 01:48:14;;;;;;;16.40;10.75;;;;;;;;;;5093771;28;20048;-88
2023/01/23 01:50:42;;;;;;;17.50;11.02;;;;;;;;;;5092818;28;20470;-88
2023/01/23 01:53:10;;;;;;;17.20;11.38;;;;;;;;;;5092670;28;20044;-88
2023/01/23 01:55:37;;;;;;;16.25;11.18;;;;;;;;;;5092531;28;20488;-89
2023/01/23 01:58:05;;;;;;;16.90;11.63;;;;;;;;;;5092587;28;20051;-88
2023/01/23 02:00:35;;;;;;;16.42;11.50;;;;;;;;;;5092635;28;20048;-88
2023/01/23 02:03:02;;;;;;;16.92;11.43;;;;;;;;;;5093390;28;20060;-88
2023/01/23 02:05:31;;;;;;;17.38;10.98;;;;;;;;;;5092425;28;20127;-87
2023/01/23 02:08:08;;;;;;;17.25;12.05;;;;;;;;;;5093295;28;20131;-88
2023/01/23 02:10:36;;;;;;;17.08;11.38;;;;;;;;;;5092292;28;20055;-88
2023/01/23 02:13:17;;;;;;;18.33;12.25;;;;;;;;;;5093478;28;20059;-88
2023/01/23 02:15:44;;;;;;;17.58;11.55;;;;;;;;;;5092438;28;20050;-88
2023/01/23 02:18:12;;;;;;;18.38;11.88;;;;;;;;;;5093337;28;20052;-87
2023/01/23 02:20:39;;;;;;;19.27;12.55;;;;;;;;;;5092551;28;20058;-88
2023/01/23 02:23:08;;;;;;;19.67;12.07;;;;;;;;;;5096673;28;20083;-88
2023/01/23 02:25:44;;;;;;;18.80;11.02;;;;;;;;;;5096499;28;20050;-88
2023/01/23 02:28:12;;;;;;;21.15;12.82;;;;;;;;;;5096487;28;20052;-88
2023/01/23 02:30:41;;;;;;;18.58;12.00;;;;;;;;;;5097469;28;20044;-88
2023/01/23 02:33:31;;;;;;;21.63;13.48;;;;;;;;;;5096128;28;20458;-88
2023/01/23 02:35:59;;;;;;;22.63;12.98;;;;;;;;;;5096013;28;20048;-87
2023/01/23 02:38:27;;;;;;;19.27;11.88;;;;;;;;;;5096232;28;20432;-88
2023/01/23 02:40:56;;;;;;;21.92;13.07;;;;;;;;;;5096221;28;20522;-87
2023/01/23 02:43:25;;;;;;;21.77;12.70;;;;;;;;;;5095939;28;20059;-88
2023/01/23 02:45:55;;;;;;;20.13;12.95;;;;;;;;;;5095933;28;20424;-88
2023/01/23 02:48:23;;;;;;;20.75;12.68;;;;;;;;;;5096221;28;20056;-88
2023/01/23 02:50:50;;;;;;;21.70;13.38;;;;;;;;;;5095986;28;20059;-88
2023/01/23 02:53:17;;;;;;;22.65;13.88;;;;;;;;;;5096144;28;20059;-88
2023/01/23 02:55:44;;;;;;;21.92;13.18;;;;;;;;;;5097032;28;20128;-88
2023/01/23 03:00:57;;;;;;;17.80;11.70;;;;;;;;;;5096749;28;20048;-88
2023/01/23 03:03:24;;;;;;;20.70;13.35;;;;;;;;;;5095454;28;20078;-88
2023/01/23 03:05:54;;;;;;;18.90;12.23;;;;;;;;;;5095456;28;20057;-88
2023/01/23 03:08:21;;;;;;;19.33;11.80;;;;;;;;;;5096642;28;20044;-88
2023/01/23 03:10:48;;;;;;;20.33;11.70;;;;;;;;;;5095585;28;20075;-88
2023/01/23 03:13:15;;;;;;;20.02;12.45;;;;;;;;;;5095754;28;20040;-88
2023/01/23 03:15:43;;;;;;;20.40;12.27;;;;;;;;;;5096385;28;20052;-88
2023/01/23 03:18:10;;;;;;;17.05;12.35;;;;;;;;;;5096375;28;20052;-88
2023/01/23 03:20:40;;;;;;;18.35;11.43;;;;;;;;;;5095430;28;20044;-87
2023/01/23 03:23:08;;;;;;;21.27;12.77;;;;;;;;;;5095258;28;20130;-88
2023/01/23 03:25:35;;;;;;;25.58;12.75;;;;;;;;;;5095396;28;20141;-88
2023/01/23 03:28:02;;;;;;;19.48;12.13;;;;;;;;;;5096295;28;20052;-88
2023/01/23 03:30:31;;;;;;;22.10;13.63;;;;;;;;;;5095486;28;20109;-88
2023/01/23 03:32:59;;;;;;;23.40;13.30;;;;;;;;;;5096207;28;20048;-88
2023/01/23 03:35:26;;;;;;;24.33;14.52;;;;;;;;;;5095272;28;20050;-88
2023/01/23 03:37:53;;;;;;;24.35;13.77;;;;;;;;;;5095229;28;20046;-88
2023/01/23 03:43:08;;;;;;;29.52;15.07;;;;;;;;;;5096014;28;20044;-88
2023/01/23 03:45:35;;;;;;;27.70;15.43;;;;;;;;;;5096037;28;20477;-88
2023/01/23 03:48:02;;;;;;;30.95;15.63;;;;;;;;;;5096021;28;20051;-87
2023/01/23 03:50:29;;;;;;;30.77;16.38;;;;;;;;;;5095947;28;20492;-87
2023/01/23 03:52:56;;;;;;;30.08;16.02;;;;;;;;;;5094481;28;20047;-88
2023/01/23 03:55:23;;;;;;;34.75;15.90;;;;;;;;;;5095731;28;20579;-87
2023/01/23 03:57:51;;;;;;;29.33;15.20;;;;;;;;;;5094403;28;20054;-88
2023/01/23 04:00:18;;;;;;;29.08;15.68;;;;;;;;;;5094902;28;20058;-87
2023/01/23 04:02:46;;;;;;;32.85;15.40;;;;;;;;;;5095536;28;20044;-87
2023/01/23 04:05:13;;;;;;;35.85;16.30;;;;;;;;;;5094775;28;20047;-87
2023/01/23 04:07:40;;;;;;;37.00;16.30;;;;;;;;;;5094165;28;20048;-87
2023/01/23 04:10:07;;;;;;;38.13;17.63;;;;;;;;;;5095377;28;20528;-88
2023/01/23 04:12:38;;;;;;;39.30;16.75;;;;;;;;;;5095474;28;20067;-88
2023/01/23 04:15:05;;;;;;;42.58;17.48;;;;;;;;;;5095234;28;20056;-88
2023/01/23 04:17:32;;;;;;;45.10;18.88;;;;;;;;;;5094143;28;20052;-88
2023/01/23 04:19:59;;;;;;;41.42;17.42;;;;;;;;;;5094148;28;20063;-88
2023/01/23 04:22:27;;;;;;;41.20;17.98;;;;;;;;;;5095360;28;20403;-88
2023/01/23 04:24:54;;;;;;;36.22;16.48;;;;;;;;;;5094961;28;20110;-87
2023/01/23 04:27:21;;;;;;;43.08;18.17;;;;;;;;;;5094322;28;20047;-87
2023/01/23 04:29:48;;;;;;;44.75;18.60;;;;;;;;;;5095132;28;20083;-87
2023/01/23 04:32:15;;;;;;;40.63;16.88;;;;;;;;;;5094273;28;20052;-88
2023/01/23 04:34:43;;;;;;;40.95;18.40;;;;;;;;;;5094975;28;20055;-88
2023/01/23 04:37:10;;;;;;;45.72;17.52;;;;;;;;;;5093889;28;20067;-88
2023/01/23 04:39:37;;;;;;;43.05;18.27;;;;;;;;;;5094924;28;20051;-88
2023/01/23 04:42:04;;;;;;;48.05;18.15;;;;;;;;;;5093741;28;20048;-88
2023/01/23 04:44:31;;;;;;;42.65;17.67;;;;;;;;;;5093274;28;20054;-87
2023/01/23 04:46:59;;;;;;;45.50;19.17;;;;;;;;;;5093799;28;20050;-87
2023/01/23 04:49:26;;;;;;;49.60;18.73;;;;;;;;;;5093698;28;20054;-88
2023/01/23 04:51:53;;;;;;;48.67;19.38;;;;;;;;;;5094512;28;20048;-87
2023/01/23 04:54:21;;;;;;;45.50;18.10;;;;;;;;;;5093867;28;20048;-87
2023/01/23 04:56:48;;;;;;;43.72;18.80;;;;;;;;;;5093291;28;20040;-88
2023/01/23 04:59:15;;;;;;;44.40;18.95;;;;;;;;;;5093563;28;20439;-87
2023/01/23 05:01:43;;;;;;;43.47;17.90;;;;;;;;;;5093421;28;20044;-88
2023/01/23 05:04:10;;;;;;;43.75;18.65;;;;;;;;;;5093414;28;20055;-87
2023/01/23 05:06:37;;;;;;;36.40;16.17;;;;;;;;;;5093161;28;20055;-87
2023/01/23 05:09:05;;;;;;;40.67;16.83;;;;;;;;;;5094312;28;20131;-87
2023/01/23 05:11:33;;;;;;;39.00;17.92;;;;;;;;;;5093434;28;20040;-87
2023/01/23 05:14:00;;;;;;;40.03;18.02;;;;;;;;;;5093235;28;20135;-87
2023/01/23 05:16:27;;;;;;;40.05;17.95;;;;;;;;;;5094114;28;20044;-88
2023/01/23 05:18:54;;;;;;;41.72;17.42;;;;;;;;;;5093040;28;20420;-88
2023/01/23 05:21:22;;;;;;;37.03;16.88;;;;;;;;;;5093078;28;20044;-88
2023/01/23 05:23:49;;;;;;;32.15;16.10;;;;;;;;;;5092923;28;20048;-87
2023/01/23 05:26:16;;;;;;;36.35;15.80;;;;;;;;;;5093236;28;20076;-88
2023/01/23 05:28:43;;;;;;;35.20;16.58;;;;;;;;;;5093029;28;20135;-89
2023/01/23 05:31:12;;;;;;;31.63;16.15;;;;;;;;;;5093984;28;20047;-88
2023/01/23 05:33:39;;;;;;;35.42;16.38;;;;;;;;;;5092908;28;20454;-87
2023/01/23 05:36:07;;;;;;;35.65;17.30;;;;;;;;;;5092910;28;20051;-88
2023/01/23 05:38:34;;;;;;;35.70;16.95;;;;;;;;;;5092747;28;20044;-88
2023/01/23 05:41:02;;;;;;;35.55;16.55;;;;;;;;;;5092820;28;20488;-88
2023/01/23 05:43:29;;;;;;;32.00;16.70;;;;;;;;;;5093774;28;20059;-88
2023/01/23 05:45:59;;;;;;;39.50;17.25;;;;;;;;;;5092606;28;20055;-88
2023/01/23 05:48:26;;;;;;;35.90;17.52;;;;;;;;;;5093697;28;20089;-88
2023/01/23 05:50:54;;;;;;;39.70;17.77;;;;;;;;;;5092418;28;20220;-88
2023/01/23 05:53:21;;;;;;;37.17;16.95;;;;;;;;;;5092809;28;20557;-88
2023/01/23 05:55:48;;;;;;;33.47;15.23;;;;;;;;;;5092205;28;20044;-88
2023/01/23 05:58:15;;;;;;;38.88;17.83;;;;;;;;;;5093582;28;20048;-88
2023/01/23 06:00:42;;;;;;;36.65;16.55;;;;;;;;;;5092571;28;20044;-88
2023/01/23 06:03:10;;;;;;;38.50;17.80;;;;;;;;;;5091954;28;20407;-87
2023/01/23 06:05:37;;;;;;;36.78;17.45;;;;;;;;;;5092448;28;20066;-88
2023/01/23 06:08:04;;;;;;;37.42;17.23;;;;;;;;;;5092678;28;20138;-88
2023/01/23 06:10:31;;;;;;;34.95;17.13;;;;;;;;;;5093477;28;20052;-87
2023/01/23 06:12:58;;;;;;;37.67;19.90;;;;;;;;;;5092365;28;20074;-88
2023/01/23 06:15:26;;;;;;;39.03;18.27;;;;;;;;;;5093587;28;20054;-87
2023/01/23 06:17:53;;;;;;;39.95;18.30;;;;;;;;;;5093653;28;20059;-87
2023/01/23 06:20:20;;;;;;;41.03;18.67;;;;;;;;;;5092322;28;20484;-88
2023/01/23 06:22:48;;;;;;;38.13;18.58;;;;;;;;;;5092691;28;20427;-87
2023/01/23 06:25:17;;;;;;;46.78;23.48;;;;;;;;;;5093404;28;20416;-87
2023/01/23 06:27:44;;;;;;;49.35;24.88;;;;;;;;;;5092135;28;20140;-88
2023/01/23 06:30:11;;;;;;;61.60;31.40;;;;;;;;;;5092963;28;20051;-88
2023/01/23 06:32:39;;;;;;;48.35;20.80;;;;;;;;;;5093359;28;20044;-88
2023/01/23 06:35:06;;;;;;;41.63;19.73;;;;;;;;;;5092248;28;20480;-87
2023/01/23 06:37:33;;;;;;;38.72;18.23;;;;;;;;;;5093157;28;20052;-88
2023/01/23 06:40:01;;;;;;;57.85;27.25;;;;;;;;;;5091992;28;20044;-88
2023/01/23 06:42:28;;;;;;;54.40;24.60;;;;;;;;;;5092300;28;20553;-87
2023/01/23 06:44:55;;;;;;;44.50;22.20;;;;;;;;;;5093134;28;20059;-88
2023/01/23 06:47:23;;;;;;;53.38;22.48;;;;;;;;;;5092205;28;20475;-87
2023/01/23 06:49:50;;;;;;;46.85;24.00;;;;;;;;;;5092090;28;20050;-87
2023/01/23 06:52:17;;;;;;;49.50;21.67;;;;;;;;;;5092199;28;20055;-88
2023/01/23 06:54:44;;;;;;;55.03;29.58;;;;;;;;;;5092008;28;20048;-87
2023/01/23 06:57:12;;;;;;;44.00;20.48;;;;;;;;;;5092154;28;20048;-87
2023/01/23 06:59:39;;;;;;;44.78;21.08;;;;;;;;;;5091967;28;20132;-87
2023/01/23 07:02:08;;;;;;;48.38;20.98;;;;;;;;;;5091914;28;20067;-87
2023/01/23 07:04:35;;;;;;;51.95;24.58;;;;;;;;;;5093039;28;20416;-87
2023/01/23 07:07:04;;;;;;;44.75;20.15;;;;;;;;;;5092924;28;20135;-87
2023/01/23 07:09:32;;;;;;;49.47;22.88;;;;;;;;;;5095523;28;20048;-87
2023/01/23 07:11:59;;;;;;;47.42;20.27;;;;;;;;;;5096565;28;20393;-87
2023/01/23 07:14:27;;;;;;;42.78;18.65;;;;;;;;;;5096721;28;20138;-88
2023/01/23 07:16:54;;;;;;;47.03;19.92;;;;;;;;;;5096149;28;20135;-87
2023/01/23 07:19:22;;;;;;;53.58;20.02;;;;;;;;;;5096214;28;20393;-87
2023/01/23 07:21:49;;;;;;;51.47;21.88;;;;;;;;;;5095526;28;20063;-87
2023/01/23 07:24:16;;;;;;;44.60;18.95;;;;;;;;;;5095567;28;20048;-87
2023/01/23 07:26:43;;;;;;;49.75;20.90;;;;;;;;;;5095115;28;20052;-87
2023/01/23 07:29:11;;;;;;;44.17;19.90;;;;;;;;;;5095531;28;20420;-87
2023/01/23 07:31:38;;;;;;;54.28;20.33;;;;;;;;;;5095424;28;20040;-88
2023/01/23 07:34:05;;;;;;;46.10;21.15;;;;;;;;;;5095508;28;20078;-86
2023/01/23 07:36:32;;;;;;;56.40;21.65;;;;;;;;;;5095403;28;20052;-87
2023/01/23 07:38:59;;;;;;;50.33;20.42;;;;;;;;;;5095087;28;20058;-87
2023/01/23 07:41:27;;;;;;;50.90;20.17;;;;;;;;;;5096240;28;20108;-87
2023/01/23 07:43:54;;;;;;;46.50;19.00;;;;;;;;;;5096009;28;20488;-87
2023/01/23 07:46:24;;;;;;;45.08;18.92;;;;;;;;;;5094895;28;20055;-88
2023/01/23 07:48:51;;;;;;;45.72;19.05;;;;;;;;;;5094575;28;20131;-87
2023/01/23 07:51:19;;;;;;;43.38;18.23;;;;;;;;;;5095035;28;20058;-88
2023/01/23 07:53:46;;;;;;;46.20;18.63;;;;;;;;;;5094722;28;20130;-87
2023/01/23 07:56:13;;;;;;;45.05;18.95;;;;;;;;;;5095780;28;20040;-87
2023/01/23 07:58:40;;;;;;;50.67;22.90;;;;;;;;;;5094703;28;20054;-87
2023/01/23 08:01:11;;;;;;;47.30;20.65;;;;;;;;;;5094606;28;20467;-87
2023/01/23 08:03:38;;;;;;;46.92;21.55;;;;;;;;;;5094806;28;20087;-87
2023/01/23 08:06:06;;;;;;;45.78;20.10;;;;;;;;;;5094433;28;20094;-87
2023/01/23 08:08:33;;;;;;;44.40;21.02;;;;;;;;;;5094305;28;20048;-87
2023/01/23 08:11:03;;;;;;;49.72;20.33;;;;;;;;;;5093887;28;20097;-87
2023/01/23 08:13:30;;;;;;;49.97;21.85;;;;;;;;;;5095355;28;20077;-87
2023/01/23 08:15:58;;;;;;;45.78;20.17;;;;;;;;;;5095212;28;20166;-88
2023/01/23 08:18:25;;;;;;;48.70;21.23;;;;;;;;;;5093874;28;20060;-87
2023/01/23 08:20:53;;;;;;;46.17;20.80;;;;;;;;;;5094302;28;20500;-87
2023/01/23 08:23:24;;;;;;;53.65;20.80;;;;;;;;;;5094181;28;20086;-87
2023/01/23 08:25:54;;;;;;;59.92;32.65;;;;;;;;;;5095269;28;20059;-87
2023/01/23 08:28:22;;;;;;;52.83;24.42;;;;;;;;;;5094194;28;20075;-88
2023/01/23 08:30:49;;;;;;;64.45;29.52;;;;;;;;;;5094996;28;20048;-87
2023/01/23 08:33:17;;;;;;;61.90;27.33;;;;;;;;;;5093965;28;20044;-86
2023/01/23 08:35:51;;;;;;;55.33;26.95;;;;;;;;;;5093607;28;20439;-87
2023/01/23 08:38:19;;;;;;;46.83;21.50;;;;;;;;;;5094034;28;20051;-88
2023/01/23 08:40:47;;;;;;;46.08;22.80;;;;;;;;;;5093872;28;20146;-87
2023/01/23 08:43:14;;;;;;;63.65;33.85;;;;;;;;;;5093912;28;20044;-87
2023/01/23 08:45:45;;;;;;;38.17;19.98;;;;;;;;;;5094781;28;20048;-87
2023/01/23 08:48:12;;;;;;;40.45;21.60;;;;;;;;;;5095036;28;20040;-88
2023/01/23 08:50:40;;;;;;;43.10;19.95;;;;;;;;;;5093626;28;20048;-87
2023/01/23 08:53:07;;;;;;;35.40;17.58;;;;;;;;;;5094650;28;20048;-88
2023/01/23 08:55:36;;;;;;;36.33;20.35;;;;;;;;;;5093547;28;20048;-87
2023/01/23 08:58:03;;;;;;;40.28;19.88;;;;;;;;;;5093598;28;20063;-86
2023/01/23 09:00:30;;;;;;;38.58;17.88;;;;;;;;;;5093561;28;20052;-88
2023/01/23 09:03:01;;;;;;;37.72;18.77;;;;;;;;;;5093330;28;20063;-87
2023/01/23 09:05:29;;;;;;;37.65;18.70;;;;;;;;;;5094430;28;20393;-88
2023/01/23 09:07:56;;;;;;;37.75;18.10;;;;;;;;;;5092981;28;20076;-88
2023/01/23 09:10:26;;;;;;;41.90;19.45;;;;;;;;;;5094234;28;20044;-88
2023/01/23 09:12:54;;;;;;;37.25;17.17;;;;;;;;;;5094123;28;20051;-87
2023/01/23 09:15:21;;;;;;;37.70;18.67;;;;;;;;;;5094167;28;20056;-88
2023/01/23 09:17:49;;;;;;;37.30;17.90;;;;;;;;;;5093050;28;20499;-88
2023/01/23 09:20:16;;;;;;;39.88;18.85;;;;;;;;;;5093195;28;20052;-87
2023/01/23 09:22:44;;;;;;;37.67;18.08;;;;;;;;;;5093933;28;20076;-87
2023/01/23 09:25:13;;;;;;;39.53;19.83;;;;;;;;;;5093329;28;20058;-88
2023/01/23 09:27:40;;;;;;;38.78;17.90;;;;;;;;;;5093096;28;20226;-88
2023/01/23 09:30:07;;;;;;;36.78;18.38;;;;;;;;;;5093889;28;20131;-88
2023/01/23 09:32:34;;;;;;;35.15;17.88;;;;;;;;;;5093996;28;20476;-86
2023/01/23 09:35:02;;;;;;;37.85;18.58;;;;;;;;;;5093004;28;20518;-87
2023/01/23 09:37:58;;;;;;;42.08;19.65;;;;;;;;;;5093038;28;20052;-87
2023/01/23 09:40:18;;;;;;;49.03;18.55;;;;;;;;;;5093924;28;20494;-87
2023/01/23 09:42:46;;;;;;;44.83;19.52;;;;;;;;;;5094028;28;20389;-87
2023/01/23 09:45:17;;;;;;;41.67;19.17;;;;;;;;;;5092781;28;20047;-87
2023/01/23 09:48:04;;;;;;;41.72;19.45;;;;;;;;;;5093489;28;20511;-87
2023/01/23 09:50:34;;;;;;;42.00;19.13;;;;;;;;;;5076191;28;20059;-86
2023/01/23 09:53:13;;;;;;;45.33;20.10;;;;;;;;;;5093599;28;20051;-87
2023/01/23 09:55:47;;;;;;;39.80;18.83;;;;;;;;;;5092653;28;20131;-87
2023/01/23 09:58:22;;;;;;;38.90;18.75;;;;;;;;;;5093848;28;20097;-87
2023/01/23 10:00:50;;;;;;;42.65;18.17;;;;;;;;;;5092064;28;20052;-88
2023/01/23 10:03:18;;;;;;;39.15;17.98;;;;;;;;;;5093417;28;20097;-87
2023/01/23 10:05:45;;;;;;;36.20;18.90;;;;;;;;;;5094055;28;20048;-88
2023/01/23 10:08:15;;;;;;;36.65;18.63;;;;;;;;;;5092702;28;20404;-88
2023/01/23 10:10:57;;;;;;;39.42;18.27;;;;;;;;;;5093345;28;20464;-88
2023/01/23 10:13:43;;;;;;;37.45;18.58;;;;;;;;;;5093557;28;20126;-89
2023/01/23 10:16:29;;;;;;;39.08;19.30;;;;;;;;;;5092391;28;20048;-88
2023/01/23 10:19:20;;;;;;;37.20;17.60;;;;;;;;;;5093772;28;20461;-88
2023/01/23 10:22:03;;;;;;;34.65;18.40;;;;;;;;;;5092413;28;20070;-88
2023/01/23 10:24:43;;;;;;;38.67;19.00;;;;;;;;;;5092480;28;20052;-88
2023/01/23 10:27:37;;;;;;;36.75;18.20;;;;;;;;;;5093548;28;20051;-88
2023/01/23 10:30:07;;;;;;;35.95;19.30;;;;;;;;;;5092853;28;20090;-88
2023/01/23 10:32:44;;;;;;;33.38;18.20;;;;;;;;;;5093380;28;20041;-88
2023/01/23 10:35:14;;;;;;;30.92;17.30;;;;;;;;;;5092753;28;20484;-88
2023/01/23 10:37:45;;;;;;;30.55;16.83;;;;;;;;;;5090660;28;20047;-88
2023/01/23 10:40:14;;;;;;;31.35;17.95;;;;;;;;;;5092733;28;20040;-88
2023/01/23 10:42:42;;;;;;;34.03;18.23;;;;;;;;;;5095672;28;20059;-88
2023/01/23 10:45:15;;;;;;;37.53;20.13;;;;;;;;;;5096377;28;20050;-88
2023/01/23 10:47:43;;;;;;;34.50;17.88;;;;;;;;;;5097062;28;20058;-89
2023/01/23 10:50:14;;;;;;;34.05;18.13;;;;;;;;;;5096426;28;20067;-88
2023/01/23 10:52:43;;;;;;;29.65;16.75;;;;;;;;;;5097311;28;20052;-89
2023/01/23 10:55:19;;;;;;;33.38;17.77;;;;;;;;;;5096299;28;20044;-89
2023/01/23 10:57:48;;;;;;;32.60;16.52;;;;;;;;;;5096184;28;20079;-88
2023/01/23 11:00:35;;;;;;;31.60;16.85;;;;;;;;;;5096091;28;20051;-89
2023/01/23 11:03:18;;;;;;;31.77;16.70;;;;;;;;;;5096937;28;20550;-89
2023/01/23 11:05:51;;;;;;;37.22;18.40;;;;;;;;;;5095780;28;20080;-90
2023/01/23 11:08:24;;;;;;;29.33;16.67;;;;;;;;;;5095877;28;20055;-90
2023/01/23 11:10:51;;;;;;;35.80;19.52;;;;;;;;;;5095328;28;20538;-90
2023/01/23 11:13:28;;;;;;;32.80;16.92;;;;;;;;;;5096879;28;20139;-90
2023/01/23 11:15:56;;;;;;;39.15;21.38;;;;;;;;;;5095332;28;20048;-90
2023/01/23 11:18:34;;;;;;;33.78;19.02;;;;;;;;;;5096715;28;20056;-89
2023/01/23 11:21:01;;;;;;;44.63;28.00;;;;;;;;;;5095479;28;20044;-90
2023/01/23 11:23:30;;;;;;;37.97;18.15;;;;;;;;;;5094946;28;20094;-91
2023/01/23 11:25:57;;;;;;;36.38;18.05;;;;;;;;;;5095476;28;20499;-90
2023/01/23 11:28:35;;;;;;;167.55;114.40;;;;;;;;;;5096338;28;20048;-91
2023/01/23 11:31:05;;;;;;;107.07;59.72;;;;;;;;;;5095248;28;20044;-90
2023/01/23 11:33:41;;;;;;;54.13;29.60;;;;;;;;;;5095928;28;20519;-90
2023/01/23 11:36:17;;;;;;;72.90;41.03;;;;;;;;;;5096403;28;20052;-90
2023/01/23 11:38:50;;;;;;;99.97;57.80;;;;;;;;;;5096505;28;20583;-91
2023/01/23 11:41:19;;;;;;;75.32;39.88;;;;;;;;;;5095514;28;20130;-91
2023/01/23 11:43:47;;;;;;;78.63;38.38;;;;;;;;;;5094911;28;20051;-90
2023/01/23 11:46:33;;;;;;;49.55;24.95;;;;;;;;;;5094974;28;20052;-91
2023/01/23 11:49:12;;;;;;;47.22;25.50;;;;;;;;;;5095079;28;20044;-90
2023/01/23 11:51:45;;;;;;;55.67;30.02;;;;;;;;;;5094282;28;20083;-91
2023/01/23 11:54:22;;;;;;;38.40;20.77;;;;;;;;;;5094687;28;20403;-90
2023/01/23 11:57:08;;;;;;;39.88;21.77;;;;;;;;;;5094606;28;20138;-90
2023/01/23 11:59:51;;;;;;;52.47;30.10;;;;;;;;;;5094877;28;20048;-90
2023/01/23 12:02:22;;;;;;;44.20;24.20;;;;;;;;;;5095093;28;20076;-90
2023/01/23 12:05:08;;;;;;;63.50;36.28;;;;;;;;;;5094385;28;20059;-90
2023/01/23 12:07:54;;;;;;;55.40;33.17;;;;;;;;;;5095715;28;20152;-89
2023/01/23 12:10:24;;;;;;;60.92;35.58;;;;;;;;;;5094879;28;20054;-90
2023/01/23 12:13:14;;;;;;;49.95;28.58;;;;;;;;;;5094615;28;20052;-90
2023/01/23 12:15:44;;;;;;;40.55;21.58;;;;;;;;;;5094123;28;20080;-90
2023/01/23 12:18:30;;;;;;;44.00;25.38;;;;;;;;;;5094214;28;20047;-89
2023/01/23 12:21:01;;;;;;;37.38;19.05;;;;;;;;;;5094680;28;20524;-89
2023/01/23 12:23:43;;;;;;;42.45;22.90;;;;;;;;;;5094347;28;20130;-89
2023/01/23 12:26:10;;;;;;;50.63;28.90;;;;;;;;;;5094335;28;20044;-89
2023/01/23 12:28:57;;;;;;;39.40;21.80;;;;;;;;;;5094417;28;20517;-88
2023/01/23 12:31:36;;;;;;;43.50;23.15;;;;;;;;;;5094151;28;20126;-90
2023/01/23 12:34:22;;;;;;;36.50;20.58;;;;;;;;;;5093852;28;20181;-89
2023/01/23 12:36:55;;;;;;;36.85;21.58;;;;;;;;;;5094218;28;20063;-89
2023/01/23 12:39:41;;;;;;;36.63;19.33;;;;;;;;;;5095049;28;20063;-89
2023/01/23 12:42:11;;;;;;;46.35;27.02;;;;;;;;;;5094394;28;20126;-89
2023/01/23 12:44:38;;;;;;;43.95;22.45;;;;;;;;;;5094869;28;20050;-89
2023/01/23 12:47:13;;;;;;;43.55;23.13;;;;;;;;;;5094083;28;20127;-90
2023/01/23 12:49:48;;;;;;;37.67;19.42;;;;;;;;;;5094807;28;20075;-90
2023/01/23 12:52:27;;;;;;;31.92;18.88;;;;;;;;;;5094033;28;20575;-91
2023/01/23 12:55:03;;;;;;;34.97;22.80;;;;;;;;;;5094659;28;20052;-90
2023/01/23 12:57:42;;;;;;;31.17;19.00;;;;;;;;;;5093786;28;20063;-90
2023/01/23 13:00:36;;;;;;;33.15;17.80;;;;;;;;;;5094739;28;20052;-91
2023/01/23 13:03:06;;;;;;;33.63;19.35;;;;;;;;;;5094716;28;20119;-91
2023/01/23 13:05:39;;;;;;;35.60;18.98;;;;;;;;;;5093469;28;20052;-91
2023/01/23 13:08:11;;;;;;;38.97;19.05;;;;;;;;;;5094928;28;20084;-91
2023/01/23 13:13:34;;;;;;;39.53;19.58;;;;;;;;;;5094245;28;20050;-91
2023/01/23 13:16:14;;;;;;;36.60;19.10;;;;;;;;;;5093197;28;20054;-91
2023/01/23 13:22:04;;;;;;;39.00;18.77;;;;;;;;;;5094578;28;20051;-91
2023/01/23 13:27:38;;;;;;;47.58;21.63;;;;;;;;;;5094167;28;20055;-92
2023/01/23 13:30:24;;;;;;;174.60;77.43;;;;;;;;;;5094173;28;20073;-92
2023/01/23 13:32:53;;;;;;;44.65;21.13;;;;;;;;;;5093941;28;20047;-91
2023/01/23 13:35:38;;;;;;;52.17;23.77;;;;;;;;;;5094070;28;20048;-90
2023/01/23 13:38:21;;;;;;;85.15;42.00;;;;;;;;;;5094178;28;20052;-91
2023/01/23 13:41:03;;;;;;;87.22;43.90;;;;;;;;;;5093929;28;20476;-91
2023/01/23 13:43:51;;;;;;;58.28;26.88;;;;;;;;;;5094561;28;20044;-90
2023/01/23 13:46:24;;;;;;;55.08;27.52;;;;;;;;;;5093306;28;20063;-92
2023/01/23 13:52:00;;;;;;;45.17;21.48;;;;;;;;;;5031718;28;20057;-92
2023/01/23 13:57:41;;;;;;;55.75;23.80;;;;;;;;;;4878326;29;20060;-92
2023/01/23 14:00:23;;;;;;;50.80;23.85;;;;;;;;;;4827591;29;20054;-92
2023/01/23 14:06:30;;;;;;;53.70;20.92;;;;;;;;;;4752597;29;20576;-92
2023/01/23 14:09:24;;;;;;;48.55;21.65;;;;;;;;;;4698706;30;20152;-92
2023/01/23 14:12:05;;;;;;;44.90;22.00;;;;;;;;;;4698358;30;20133;-93
2023/01/23 14:17:46;;;;;;;55.30;23.55;;;;;;;;;;4683418;30;20066;-93
2023/01/23 14:20:27;;;;;;;56.60;24.13;;;;;;;;;;4668053;30;20069;-92
2023/01/23 14:22:55;;;;;;;54.67;23.00;;;;;;;;;;4697046;30;20057;-92
2023/01/23 14:25:22;;;;;;;59.92;24.90;;;;;;;;;;4728008;30;20503;-92
2023/01/23 14:28:01;;;;;;;57.60;24.80;;;;;;;;;;4782063;29;20055;-92
2023/01/23 14:30:30;;;;;;;54.53;23.33;;;;;;;;;;4833692;29;20323;-91
2023/01/23 14:33:00;;;;;;;50.78;23.95;;;;;;;;;;4900695;28;20113;-92
2023/01/23 14:35:29;;;;;;;50.55;23.42;;;;;;;;;;4957394;28;20060;-93
2023/01/23 14:37:57;;;;;;;50.58;23.58;;;;;;;;;;4957635;28;20057;-91
2023/01/23 14:40:25;;;;;;;57.75;24.02;;;;;;;;;;4957381;28;20126;-93
2023/01/23 14:43:08;;;;;;;52.65;23.55;;;;;;;;;;4993199;28;20045;-91
2023/01/23 14:45:35;;;;;;;52.50;24.05;;;;;;;;;;5081880;28;20048;-93
2023/01/23 14:48:04;;;;;;;53.47;23.70;;;;;;;;;;5097619;28;20421;-92
2023/01/23 14:50:33;;;;;;;53.05;23.70;;;;;;;;;;5097706;28;20080;-92
2023/01/23 14:53:02;;;;;;;52.38;25.05;;;;;;;;;;5096341;28;20052;-93
2023/01/23 14:55:30;;;;;;;61.65;26.65;;;;;;;;;;5095743;28;20059;-92
2023/01/23 14:57:58;;;;;;;64.95;26.77;;;;;;;;;;5095949;28;20054;-92
2023/01/23 15:00:26;;;;;;;58.55;25.77;;;;;;;;;;5096472;28;20131;-92
2023/01/23 15:02:54;;;;;;;59.70;24.98;;;;;;;;;;5096891;28;20058;-91
2023/01/23 15:05:28;;;;;;;60.72;24.58;;;;;;;;;;5096953;28;20051;-91